createdAt,value
2023-05-05T00:03:30.130Z,12.90
2023-05-05T00:05:57.662Z,9.75
2023-05-05T00:08:24.816Z,8.80
2023-05-05T00:10:54.579Z,8.93
2023-05-05T00:13:21.931Z,8.00
2023-05-05T00:15:50.800Z,6.68
2023-05-05T00:18:18.516Z,10.55
2023-05-05T00:20:47.612Z,6.22
2023-05-05T00:23:19.636Z,10.63
2023-05-05T00:25:47.019Z,7.20
2023-05-05T00:28:16.622Z,6.20
2023-05-05T00:30:43.940Z,9.23
2023-05-05T00:33:11.292Z,6.63
2023-05-05T00:35:38.404Z,8.15
2023-05-05T00:38:05.777Z,7.55
2023-05-05T00:40:33.175Z,8.30
2023-05-05T00:43:00.228Z,9.75
2023-05-05T00:45:27.434Z,5.15
2023-05-05T00:47:57.155Z,6.53
2023-05-05T00:50:26.541Z,6.35
2023-05-05T00:53:00.546Z,8.10
2023-05-05T00:55:29.445Z,8.05
2023-05-05T00:57:58.729Z,7.15
2023-05-05T01:01:04.030Z,10.05
2023-05-05T01:03:33.637Z,11.90
2023-05-05T01:06:07.156Z,11.07
2023-05-05T01:11:27.119Z,9.68
2023-05-05T01:14:13.526Z,11.82
2023-05-05T01:16:55.916Z,15.88
2023-05-05T01:19:49.893Z,14.77
2023-05-05T01:22:23.958Z,19.08
2023-05-05T01:25:00.179Z,16.15
2023-05-05T01:28:03.199Z,18.42
2023-05-05T01:30:48.999Z,15.63
2023-05-05T01:33:26.360Z,19.00
2023-05-05T01:36:00.055Z,12.27
2023-05-05T01:38:35.277Z,14.15
2023-05-05T01:41:15.710Z,15.27
2023-05-05T01:43:46.332Z,7.22
2023-05-05T01:46:17.875Z,11.65
2023-05-05T01:48:49.943Z,9.13
2023-05-05T01:51:19.498Z,10.90
2023-05-05T01:53:50.521Z,11.43
2023-05-05T01:56:18.798Z,11.88
2023-05-05T01:58:47.746Z,7.95
2023-05-05T02:01:19.289Z,14.07
2023-05-05T02:03:51.496Z,9.23
2023-05-05T02:06:23.977Z,10.85
2023-05-05T02:08:53.066Z,7.68
2023-05-05T02:11:21.970Z,12.35
2023-05-05T02:13:53.343Z,11.95
2023-05-05T02:16:22.997Z,7.28
2023-05-05T02:18:51.075Z,7.88
2023-05-05T02:21:21.190Z,7.00
2023-05-05T02:23:52.148Z,8.02
2023-05-05T02:26:21.999Z,8.48
2023-05-05T02:29:13.191Z,15.35
2023-05-05T02:31:47.902Z,8.63
2023-05-05T02:34:35.109Z,15.50
2023-05-05T02:37:07.258Z,12.57
2023-05-05T02:39:58.577Z,9.93
2023-05-05T02:42:36.733Z,12.13
2023-05-05T02:45:11.467Z,16.30
2023-05-05T02:47:41.820Z,14.88
2023-05-05T02:50:09.922Z,16.98
2023-05-05T02:52:40.627Z,9.80
2023-05-05T02:55:10.705Z,7.57
2023-05-05T02:57:40.366Z,13.82
2023-05-05T03:00:30.727Z,15.13
2023-05-05T03:03:14.383Z,15.20
2023-05-05T03:05:49.583Z,16.02
2023-05-05T03:08:20.846Z,10.00
2023-05-05T03:10:59.232Z,9.43
2023-05-05T03:13:30.388Z,13.70
2023-05-05T03:15:58.762Z,10.95
2023-05-05T03:18:32.567Z,17.02
2023-05-05T03:21:08.620Z,10.63
2023-05-05T03:23:38.944Z,11.35
2023-05-05T03:26:11.403Z,9.35
2023-05-05T03:28:42.448Z,9.40
2023-05-05T03:31:28.562Z,13.18
2023-05-05T03:34:01.495Z,21.08
2023-05-05T03:36:36.243Z,7.35
2023-05-05T03:39:03.887Z,9.80
2023-05-05T03:41:33.667Z,9.85
2023-05-05T03:44:00.960Z,9.73
2023-05-05T03:46:28.178Z,14.45
2023-05-05T03:48:58.483Z,10.63
2023-05-05T03:51:31.379Z,7.75
2023-05-05T03:53:59.650Z,11.32
2023-05-05T03:56:27.455Z,8.63
2023-05-05T03:58:54.545Z,9.15
2023-05-05T04:01:21.857Z,8.50
2023-05-05T04:03:49.281Z,14.60
2023-05-05T04:06:16.366Z,8.90
2023-05-05T04:08:43.414Z,8.77
2023-05-05T04:11:11.065Z,9.93
2023-05-05T04:13:39.240Z,8.57
2023-05-05T04:16:07.408Z,9.07
2023-05-05T04:18:34.539Z,8.50
2023-05-05T04:21:01.925Z,6.63
2023-05-05T04:23:29.136Z,11.20
2023-05-05T04:25:56.294Z,11.15
2023-05-05T04:28:25.663Z,9.25
2023-05-05T04:30:52.872Z,10.60
2023-05-05T04:33:20.445Z,7.80
2023-05-05T04:35:49.399Z,10.43
2023-05-05T04:38:16.612Z,10.48
2023-05-05T04:40:43.879Z,14.75
2023-05-05T04:43:11.673Z,9.10
2023-05-05T04:45:39.679Z,8.65
2023-05-05T04:48:06.959Z,17.65
2023-05-05T04:50:34.043Z,12.98
2023-05-05T04:53:03.548Z,10.68
2023-05-05T04:55:30.698Z,9.45
2023-05-05T04:57:57.981Z,16.10
2023-05-05T05:00:25.096Z,13.05
2023-05-05T05:02:53.504Z,18.23
2023-05-05T05:05:21.794Z,15.48
2023-05-05T05:07:48.932Z,13.50
2023-05-05T05:10:16.278Z,9.10
2023-05-05T05:12:43.491Z,16.52
2023-05-05T05:15:11.296Z,15.65
2023-05-05T05:17:40.768Z,15.73
2023-05-05T05:20:11.055Z,13.45
2023-05-05T05:22:40.903Z,17.70
2023-05-05T05:25:12.950Z,19.10
2023-05-05T05:28:06.069Z,17.27
2023-05-05T05:30:45.997Z,15.75
2023-05-05T05:33:19.183Z,10.82
2023-05-05T05:35:47.111Z,19.45
2023-05-05T05:38:21.255Z,13.20
2023-05-05T05:40:52.064Z,9.77
2023-05-05T05:43:31.705Z,15.13
2023-05-05T05:46:14.253Z,15.73
2023-05-05T05:48:44.925Z,19.45
2023-05-05T05:51:17.777Z,20.80
2023-05-05T05:53:51.047Z,15.02
2023-05-05T05:56:28.771Z,12.48
2023-05-05T05:59:04.613Z,10.85
2023-05-05T06:04:29.478Z,12.77
2023-05-05T06:06:58.826Z,17.40
2023-05-05T06:09:33.780Z,14.35
2023-05-05T06:12:04.421Z,19.63
2023-05-05T06:17:36.736Z,13.73
2023-05-05T06:20:10.583Z,20.40
2023-05-05T06:22:41.002Z,17.83
2023-05-05T06:25:14.645Z,22.00
2023-05-05T06:27:44.250Z,13.18
2023-05-05T06:30:15.526Z,26.65
2023-05-05T06:32:44.637Z,25.05
2023-05-05T06:35:21.754Z,12.90
2023-05-05T06:37:51.754Z,16.80
2023-05-05T06:40:21.593Z,23.33
2023-05-05T06:42:51.600Z,18.60
2023-05-05T06:45:32.474Z,23.27
2023-05-05T06:48:03.486Z,19.17
2023-05-05T06:50:39.892Z,13.82
2023-05-05T06:53:07.470Z,14.63
2023-05-05T06:56:11.938Z,18.88
2023-05-05T06:58:56.132Z,13.48
2023-05-05T07:01:37.231Z,16.60
2023-05-05T07:04:10.641Z,14.95
2023-05-05T07:06:49.473Z,16.25
2023-05-05T07:09:54.959Z,15.35
2023-05-05T07:12:29.580Z,9.35
2023-05-05T07:15:23.371Z,13.93
2023-05-05T07:18:07.018Z,23.58
2023-05-05T07:20:51.786Z,23.38
2023-05-05T07:23:29.343Z,16.65
2023-05-05T07:26:25.655Z,17.30
2023-05-05T07:29:06.897Z,31.87
2023-05-05T07:31:45.887Z,16.10
2023-05-05T07:34:26.715Z,25.05
2023-05-05T07:37:09.085Z,16.83
2023-05-05T07:39:51.235Z,17.42
2023-05-05T07:42:32.407Z,19.65
2023-05-05T07:45:14.141Z,18.00
2023-05-05T07:47:49.937Z,21.15
2023-05-05T07:50:31.542Z,21.30
2023-05-05T07:55:48.727Z,17.40
2023-05-05T07:58:16.237Z,19.10
2023-05-05T08:00:44.160Z,20.38
2023-05-05T08:03:13.250Z,26.98
2023-05-05T08:05:42.847Z,14.15
2023-05-05T08:08:10.698Z,18.80
2023-05-05T08:10:43.683Z,24.40
2023-05-05T08:13:18.517Z,20.92
2023-05-05T08:15:55.473Z,18.65
2023-05-05T08:18:32.319Z,16.58
2023-05-05T08:21:02.564Z,17.70
2023-05-05T08:23:33.111Z,8.70
2023-05-05T08:26:04.775Z,15.77
2023-05-05T08:28:33.044Z,13.80
2023-05-05T08:31:02.524Z,17.08
2023-05-05T08:33:33.627Z,13.77
2023-05-05T08:36:03.672Z,18.55
2023-05-05T08:38:34.578Z,12.90
2023-05-05T08:41:05.186Z,17.52
2023-05-05T08:43:36.639Z,22.20
2023-05-05T08:46:05.703Z,8.82
2023-05-05T08:48:37.173Z,18.98
2023-05-05T08:51:06.948Z,11.73
2023-05-05T08:53:57.977Z,15.15
2023-05-05T08:56:27.805Z,12.80
2023-05-05T08:58:57.041Z,11.98
2023-05-05T09:01:24.435Z,13.20
2023-05-05T09:04:08.124Z,7.13
2023-05-05T09:07:04.183Z,11.45
2023-05-05T09:09:48.213Z,8.95
2023-05-05T09:12:32.032Z,8.43
2023-05-05T09:15:15.572Z,22.02
2023-05-05T09:17:54.595Z,11.20
2023-05-05T09:20:41.646Z,14.02
2023-05-05T09:23:23.192Z,8.77
2023-05-05T09:26:11.168Z,13.15
2023-05-05T09:28:52.818Z,20.95
2023-05-05T09:31:20.363Z,10.02
2023-05-05T09:33:50.105Z,15.48
2023-05-05T09:36:51.758Z,15.05
2023-05-05T09:39:31.421Z,10.55
2023-05-05T09:42:06.364Z,9.52
2023-05-05T09:47:41.975Z,16.40
2023-05-05T09:50:19.046Z,10.07
2023-05-05T09:52:57.838Z,10.95
2023-05-05T09:55:42.253Z,10.30
2023-05-05T09:58:20.051Z,11.00
2023-05-05T10:00:47.991Z,11.77
2023-05-05T10:03:18.081Z,11.80
2023-05-05T10:05:55.832Z,8.73
2023-05-05T10:08:28.729Z,12.75
2023-05-05T10:11:06.694Z,10.88
2023-05-05T10:13:39.854Z,8.57
2023-05-05T10:16:27.397Z,8.38
2023-05-05T10:19:05.337Z,15.20
2023-05-05T10:24:38.449Z,9.63
2023-05-05T10:27:15.572Z,16.90
2023-05-05T10:30:04.898Z,12.38
2023-05-05T10:35:31.509Z,8.77
2023-05-05T10:38:06.180Z,7.35
2023-05-05T10:40:36.974Z,10.93
2023-05-05T10:43:08.528Z,15.30
2023-05-05T10:45:38.041Z,6.15
2023-05-05T10:48:09.302Z,9.50
2023-05-05T10:50:41.924Z,14.57
2023-05-05T10:53:29.431Z,11.07
2023-05-05T10:56:09.197Z,11.07
2023-05-05T10:58:58.352Z,8.63
2023-05-05T11:01:36.644Z,12.33
2023-05-05T11:04:39.064Z,9.48
2023-05-05T11:07:11.869Z,7.50
2023-05-05T11:10:01.767Z,9.55
2023-05-05T11:12:32.911Z,8.10
2023-05-05T11:15:24.789Z,8.75
2023-05-05T11:17:55.305Z,14.43
2023-05-05T11:20:41.251Z,12.25
2023-05-05T11:23:08.873Z,11.60
2023-05-05T11:25:41.262Z,9.15
2023-05-05T11:28:14.460Z,8.55
2023-05-05T11:31:00.873Z,4.90
2023-05-05T11:33:33.146Z,10.55
2023-05-05T11:36:11.941Z,7.75
2023-05-05T11:38:48.562Z,12.48
2023-05-05T11:41:27.712Z,7.10
2023-05-05T11:44:17.107Z,9.15
2023-05-05T11:47:05.022Z,7.45
2023-05-05T11:49:39.892Z,6.55
2023-05-05T11:52:07.843Z,7.22
2023-05-05T11:54:37.398Z,10.88
2023-05-05T11:57:08.682Z,6.53
2023-05-05T11:59:58.341Z,5.07
2023-05-05T12:02:30.385Z,7.20
2023-05-05T12:05:08.245Z,10.85
2023-05-05T12:07:48.181Z,6.18
2023-05-05T12:10:29.308Z,5.05
2023-05-05T12:12:59.901Z,7.13
2023-05-05T12:15:33.595Z,8.15
2023-05-05T12:18:17.699Z,5.40
2023-05-05T12:20:53.168Z,8.73
2023-05-05T12:23:23.168Z,11.23
2023-05-05T12:25:58.097Z,3.70
2023-05-05T12:28:49.028Z,5.18
2023-05-05T12:31:32.538Z,8.23
2023-05-05T12:34:11.765Z,8.90
2023-05-05T12:36:53.821Z,8.57
2023-05-05T12:39:36.892Z,7.95
2023-05-05T12:42:12.816Z,7.93
2023-05-05T12:44:48.218Z,7.93
2023-05-05T12:47:37.202Z,5.60
2023-05-05T12:50:14.345Z,7.25
2023-05-05T12:55:47.771Z,4.53
2023-05-05T12:58:21.107Z,5.97
2023-05-05T13:01:10.824Z,5.25
2023-05-05T13:03:44.239Z,6.15
2023-05-05T13:06:22.093Z,8.75
2023-05-05T13:09:03.684Z,3.97
2023-05-05T13:11:39.888Z,9.35
2023-05-05T13:14:10.046Z,6.15
2023-05-05T13:16:41.049Z,7.88
2023-05-05T13:19:08.434Z,7.88
2023-05-05T13:21:44.256Z,8.88
2023-05-05T13:24:28.755Z,9.43
2023-05-05T13:27:09.100Z,4.80
2023-05-05T13:29:36.859Z,4.30
2023-05-05T13:32:08.451Z,4.50
2023-05-05T13:34:55.950Z,4.53
2023-05-05T13:37:26.643Z,7.15
2023-05-05T13:39:59.648Z,9.98
2023-05-05T13:42:26.848Z,10.40
2023-05-05T13:44:57.564Z,6.80
2023-05-05T13:47:28.134Z,6.25
2023-05-05T13:50:01.465Z,12.95
2023-05-05T13:52:29.874Z,3.53
2023-05-05T13:55:01.076Z,3.55
2023-05-05T13:57:29.010Z,5.88
2023-05-05T14:00:03.699Z,7.53
2023-05-05T14:02:34.661Z,6.50
2023-05-05T14:05:11.301Z,5.25
2023-05-05T14:07:41.648Z,7.28
2023-05-05T14:10:12.044Z,19.85
2023-05-05T14:12:42.399Z,4.38
2023-05-05T14:15:12.888Z,3.65
2023-05-05T14:17:43.192Z,3.90
2023-05-05T14:20:13.403Z,6.55
2023-05-05T14:22:43.981Z,4.55
2023-05-05T14:25:14.393Z,6.47
2023-05-05T14:27:44.819Z,6.65
2023-05-05T14:30:21.445Z,7.20
2023-05-05T14:32:55.594Z,4.55
2023-05-05T14:35:22.906Z,4.43
2023-05-05T14:37:50.183Z,2.83
2023-05-05T14:40:17.496Z,4.03
2023-05-05T14:42:44.671Z,2.63
2023-05-05T14:45:12.435Z,5.68
2023-05-05T14:47:39.604Z,8.70
2023-05-05T14:50:09.839Z,13.77
2023-05-05T14:52:40.920Z,8.68
2023-05-05T14:55:08.465Z,7.65
2023-05-05T14:57:36.073Z,7.20
2023-05-05T15:00:09.770Z,4.38
2023-05-05T15:02:38.209Z,8.27
2023-05-05T15:05:08.754Z,3.25
2023-05-05T15:07:40.216Z,6.22
2023-05-05T15:10:08.034Z,7.50
2023-05-05T15:12:35.486Z,4.07
2023-05-05T15:15:02.969Z,4.80
2023-05-05T15:17:34.299Z,8.07
2023-05-05T15:20:01.660Z,5.53
2023-05-05T15:22:28.894Z,2.67
2023-05-05T15:24:55.992Z,7.88
2023-05-05T15:27:23.384Z,2.45
2023-05-05T15:29:50.545Z,4.05
2023-05-05T15:32:20.145Z,6.03
2023-05-05T15:34:55.903Z,3.75
2023-05-05T15:37:23.421Z,8.13
2023-05-05T15:39:53.255Z,4.85
2023-05-05T15:42:23.384Z,3.42
2023-05-05T15:44:51.513Z,5.18
2023-05-05T15:47:19.297Z,4.90
2023-05-05T15:49:48.964Z,4.22
2023-05-05T15:52:22.306Z,5.32
2023-05-05T15:54:49.617Z,4.07
2023-05-05T15:57:19.354Z,4.57
2023-05-05T15:59:46.722Z,6.40
2023-05-05T16:02:13.941Z,5.25
2023-05-05T16:04:43.338Z,5.07
2023-05-05T16:07:11.479Z,4.65
2023-05-05T16:09:38.841Z,6.53
2023-05-05T16:12:06.333Z,3.33
2023-05-05T16:14:33.538Z,5.53
2023-05-05T16:17:03.778Z,7.28
2023-05-05T16:19:31.405Z,4.78
2023-05-05T16:21:58.748Z,4.45
2023-05-05T16:24:25.941Z,7.97
2023-05-05T16:26:53.242Z,6.68
2023-05-05T16:29:23.005Z,2.58
2023-05-05T16:31:50.323Z,5.88
2023-05-05T16:34:20.040Z,6.65
2023-05-05T16:36:47.535Z,4.43
2023-05-05T16:39:14.977Z,4.60
2023-05-05T16:41:42.300Z,4.70
2023-05-05T16:44:13.076Z,12.88
2023-05-05T16:46:41.074Z,7.97
2023-05-05T16:49:08.667Z,5.45
2023-05-05T16:51:36.333Z,2.70
2023-05-05T16:54:03.682Z,4.57
2023-05-05T16:56:36.657Z,5.03
2023-05-05T16:59:06.785Z,8.57
2023-05-05T17:01:35.153Z,4.50
2023-05-05T17:04:02.692Z,4.82
2023-05-05T17:06:33.553Z,11.55
2023-05-05T17:09:03.839Z,5.60
2023-05-05T17:11:32.017Z,6.43
2023-05-05T17:14:05.531Z,6.97
2023-05-05T17:19:03.076Z,4.85
2023-05-05T17:21:30.292Z,6.07
2023-05-05T17:23:58.790Z,5.00
2023-05-05T17:26:26.155Z,8.85
2023-05-05T17:28:53.385Z,7.43
2023-05-05T17:31:20.731Z,4.45
2023-05-05T17:33:47.888Z,7.57
2023-05-05T17:36:15.320Z,8.27
2023-05-05T17:38:45.454Z,5.47
2023-05-05T17:41:15.361Z,2.88
2023-05-05T17:43:42.846Z,3.38
2023-05-05T17:46:10.129Z,4.57
2023-05-05T17:48:37.366Z,5.32
2023-05-05T17:51:17.474Z,6.68
2023-05-05T17:53:48.151Z,8.85
2023-05-05T17:56:15.191Z,5.32
2023-05-05T17:58:42.322Z,5.15
2023-05-05T18:01:24.837Z,5.63
2023-05-05T18:03:55.251Z,6.88
2023-05-05T18:06:22.433Z,6.50
2023-05-05T18:08:52.976Z,7.25
2023-05-05T18:11:29.503Z,5.70
2023-05-05T18:14:11.002Z,3.38
2023-05-05T18:16:53.722Z,7.00
2023-05-05T18:19:36.670Z,6.13
2023-05-05T18:22:15.477Z,9.10
2023-05-05T18:24:49.005Z,5.90
2023-05-05T18:27:21.430Z,9.68
2023-05-05T18:29:48.590Z,4.10
2023-05-05T18:32:15.867Z,3.50
2023-05-05T18:34:43.406Z,4.80
2023-05-05T18:37:12.982Z,4.25
2023-05-05T18:39:44.105Z,3.35
2023-05-05T18:42:15.931Z,5.80
2023-05-05T18:44:47.917Z,7.40
2023-05-05T18:47:22.397Z,8.10
2023-05-05T18:49:50.080Z,9.45
2023-05-05T18:52:17.198Z,9.18
2023-05-05T18:54:46.809Z,8.13
2023-05-05T18:57:16.848Z,6.32
2023-05-05T18:59:50.827Z,4.10
2023-05-05T19:02:20.509Z,5.25
2023-05-05T19:04:52.009Z,5.90
2023-05-05T19:07:35.511Z,7.60
2023-05-05T19:10:23.683Z,7.07
2023-05-05T19:12:53.188Z,9.55
2023-05-05T19:15:21.708Z,13.82
2023-05-05T19:17:49.580Z,5.18
2023-05-05T19:20:17.643Z,9.30
2023-05-05T19:22:45.242Z,6.90
2023-05-05T19:25:16.516Z,14.05
2023-05-05T19:27:47.292Z,8.43
2023-05-05T19:30:16.994Z,10.13
2023-05-05T19:32:46.580Z,8.68
2023-05-05T19:35:16.053Z,8.43
2023-05-05T19:37:44.486Z,5.82
2023-05-05T19:40:13.276Z,5.13
2023-05-05T19:42:42.848Z,8.05
2023-05-05T19:45:10.114Z,7.60
2023-05-05T19:47:37.879Z,7.95
2023-05-05T19:50:05.433Z,10.52
2023-05-05T19:52:37.222Z,12.32
2023-05-05T19:55:06.270Z,6.43
2023-05-05T19:57:33.853Z,8.00
2023-05-05T20:00:01.649Z,12.32
2023-05-05T20:02:33.248Z,9.07
2023-05-05T20:05:06.910Z,8.43
2023-05-05T20:07:34.152Z,9.03
2023-05-05T20:10:01.361Z,7.57
2023-05-05T20:12:28.728Z,6.15
2023-05-05T20:14:58.154Z,5.25
2023-05-05T20:17:29.271Z,6.80
2023-05-05T20:19:58.363Z,5.53
2023-05-05T20:22:28.200Z,10.57
2023-05-05T20:24:55.378Z,9.07
2023-05-05T20:27:26.657Z,13.68
2023-05-05T20:29:59.579Z,8.55
2023-05-05T20:32:27.246Z,6.35
2023-05-05T20:35:09.965Z,10.85
2023-05-05T20:37:45.902Z,11.98
2023-05-05T20:40:13.619Z,6.18
2023-05-05T20:42:51.071Z,10.32
2023-05-05T20:45:18.314Z,7.25
2023-05-05T20:47:47.534Z,6.40
2023-05-05T20:50:14.960Z,7.57
2023-05-05T20:52:50.459Z,5.15
2023-05-05T20:55:27.329Z,7.07
2023-05-05T20:57:59.876Z,6.85
2023-05-05T21:00:30.738Z,7.65
2023-05-05T21:02:58.937Z,7.60
2023-05-05T21:05:28.321Z,8.18
2023-05-05T21:08:01.138Z,9.60
2023-05-05T21:10:35.634Z,9.43
2023-05-05T21:13:08.219Z,11.95
2023-05-05T21:15:44.448Z,5.03
2023-05-05T21:18:11.950Z,8.55
2023-05-05T21:20:44.993Z,8.60
2023-05-05T21:25:40.051Z,11.88
2023-05-05T21:28:08.958Z,7.18
2023-05-05T21:30:38.196Z,7.97
2023-05-05T21:33:06.623Z,13.13
2023-05-05T21:35:34.590Z,6.85
2023-05-05T21:38:02.027Z,9.32
2023-05-05T21:40:29.084Z,10.13
2023-05-05T21:42:56.865Z,7.85
2023-05-05T21:45:24.028Z,14.43
2023-05-05T21:47:56.521Z,11.52
2023-05-05T21:50:28.240Z,9.85
2023-05-05T21:52:56.684Z,9.30
2023-05-05T21:55:23.860Z,12.43
2023-05-05T21:57:51.189Z,9.95
2023-05-05T22:00:18.444Z,10.07
2023-05-05T22:02:45.788Z,11.27
2023-05-05T22:05:13.378Z,8.65
2023-05-05T22:07:40.876Z,8.65
2023-05-05T22:10:08.644Z,13.05
2023-05-05T22:12:35.848Z,11.60
2023-05-05T22:15:02.958Z,11.15
2023-05-05T22:17:30.062Z,12.68
2023-05-05T22:19:57.191Z,10.23
2023-05-05T22:22:24.524Z,11.80
2023-05-05T22:24:51.752Z,18.92
2023-05-05T22:27:18.904Z,15.95
2023-05-05T22:29:47.348Z,16.42
2023-05-05T22:32:14.326Z,16.33
2023-05-05T22:34:41.620Z,14.63
2023-05-05T22:37:09.979Z,15.20
2023-05-05T22:39:39.418Z,16.02
2023-05-05T22:42:06.694Z,11.63
2023-05-05T22:44:33.790Z,14.70
2023-05-05T22:47:03.299Z,16.35
2023-05-05T22:49:30.540Z,17.77
2023-05-05T22:51:58.013Z,15.38
2023-05-05T22:54:25.156Z,20.42
2023-05-05T22:56:52.204Z,16.73
2023-05-05T22:59:20.034Z,13.82
2023-05-05T23:01:47.091Z,15.65
2023-05-05T23:04:14.336Z,19.95
2023-05-05T23:06:45.014Z,21.92
2023-05-05T23:09:12.128Z,20.77
2023-05-05T23:11:39.175Z,17.15
2023-05-05T23:14:06.215Z,19.95
2023-05-05T23:16:33.406Z,19.25
2023-05-05T23:19:00.581Z,18.73
2023-05-05T23:21:29.223Z,16.98
2023-05-05T23:23:59.328Z,17.58
2023-05-05T23:26:26.506Z,23.13
2023-05-05T23:28:53.670Z,27.55
2023-05-05T23:31:20.887Z,18.67
2023-05-05T23:33:48.339Z,22.70
2023-05-05T23:36:15.503Z,23.27
2023-05-05T23:38:42.592Z,20.92
2023-05-05T23:41:09.774Z,22.63
2023-05-05T23:43:36.819Z,19.15
2023-05-05T23:46:03.932Z,33.88
2023-05-05T23:48:31.110Z,42.42
2023-05-05T23:50:58.185Z,30.23
2023-05-05T23:53:28.068Z,30.30
2023-05-05T23:55:58.114Z,24.63
2023-05-05T23:58:26.880Z,27.55
